sensor_id;sensor_type;location;lat;lon;timestamp;P1;durP1;ratioP1;P2;durP2;ratioP2
12208;SDS011;6167;43.080;25.634;2022-12-31T00:02:01;55.13;;;25.20;;
12208;SDS011;6167;43.080;25.634;2022-12-31T00:04:29;38.53;;;22.13;;
12208;SDS011;6167;43.080;25.634;2022-12-31T00:06:56;49.03;;;26.67;;
12208;SDS011;6167;43.080;25.634;2022-12-31T00:09:24;42.47;;;21.50;;
12208;SDS011;6167;43.080;25.634;2022-12-31T00:11:52;36.43;;;21.40;;
12208;SDS011;6167;43.080;25.634;2022-12-31T00:14:19;139.80;;;71.47;;
12208;SDS011;6167;43.080;25.634;2022-12-31T00:16:46;143.37;;;71.80;;
12208;SDS011;6167;43.080;25.634;2022-12-31T00:19:13;127.00;;;65.03;;
12208;SDS011;6167;43.080;25.634;2022-12-31T00:21:42;32.63;;;22.07;;
12208;SDS011;6167;43.080;25.634;2022-12-31T00:24:09;31.13;;;19.57;;
12208;SDS011;6167;43.080;25.634;2022-12-31T00:26:39;105.83;;;60.37;;
12208;SDS011;6167;43.080;25.634;2022-12-31T00:29:06;32.00;;;22.50;;
12208;SDS011;6167;43.080;25.634;2022-12-31T00:31:33;21.70;;;16.73;;
12208;SDS011;6167;43.080;25.634;2022-12-31T00:34:03;22.07;;;15.50;;
12208;SDS011;6167;43.080;25.634;2022-12-31T00:36:31;33.73;;;22.67;;
12208;SDS011;6167;43.080;25.634;2022-12-31T00:39:02;22.13;;;16.87;;
12208;SDS011;6167;43.080;25.634;2022-12-31T00:41:30;250.50;;;122.00;;
12208;SDS011;6167;43.080;25.634;2022-12-31T00:44:00;29.80;;;18.90;;
12208;SDS011;6167;43.080;25.634;2022-12-31T00:46:27;25.30;;;17.30;;
12208;SDS011;6167;43.080;25.634;2022-12-31T00:48:55;23.40;;;17.57;;
12208;SDS011;6167;43.080;25.634;2022-12-31T00:51:23;322.23;;;152.80;;
12208;SDS011;6167;43.080;25.634;2022-12-31T00:53:51;401.00;;;176.83;;
12208;SDS011;6167;43.080;25.634;2022-12-31T00:56:19;433.63;;;185.50;;
12208;SDS011;6167;43.080;25.634;2022-12-31T00:58:52;198.47;;;100.43;;
12208;SDS011;6167;43.080;25.634;2022-12-31T01:01:22;35.73;;;24.17;;
12208;SDS011;6167;43.080;25.634;2022-12-31T01:03:50;24.23;;;17.90;;
12208;SDS011;6167;43.080;25.634;2022-12-31T01:06:26;31.40;;;21.73;;
12208;SDS011;6167;43.080;25.634;2022-12-31T01:08:53;70.40;;;39.87;;
12208;SDS011;6167;43.080;25.634;2022-12-31T01:11:21;38.23;;;22.87;;
12208;SDS011;6167;43.080;25.634;2022-12-31T01:13:53;33.67;;;22.00;;
12208;SDS011;6167;43.080;25.634;2022-12-31T01:16:24;30.50;;;22.97;;
12208;SDS011;6167;43.080;25.634;2022-12-31T01:18:53;49.13;;;36.53;;
12208;SDS011;6167;43.080;25.634;2022-12-31T01:21:20;25.40;;;18.57;;
12208;SDS011;6167;43.080;25.634;2022-12-31T01:23:48;23.70;;;18.10;;
12208;SDS011;6167;43.080;25.634;2022-12-31T01:26:16;23.53;;;17.73;;
12208;SDS011;6167;43.080;25.634;2022-12-31T01:28:46;25.40;;;17.83;;
12208;SDS011;6167;43.080;25.634;2022-12-31T01:31:14;21.33;;;16.37;;
12208;SDS011;6167;43.080;25.634;2022-12-31T01:33:44;24.27;;;19.23;;
12208;SDS011;6167;43.080;25.634;2022-12-31T01:36:12;26.97;;;18.53;;
12208;SDS011;6167;43.080;25.634;2022-12-31T01:38:40;28.73;;;18.50;;
12208;SDS011;6167;43.080;25.634;2022-12-31T01:41:09;24.07;;;18.93;;
12208;SDS011;6167;43.080;25.634;2022-12-31T01:43:43;31.93;;;20.73;;
12208;SDS011;6167;43.080;25.634;2022-12-31T01:46:16;25.57;;;19.17;;
12208;SDS011;6167;43.080;25.634;2022-12-31T01:48:50;24.33;;;16.73;;
12208;SDS011;6167;43.080;25.634;2022-12-31T01:51:20;23.07;;;16.20;;
12208;SDS011;6167;43.080;25.634;2022-12-31T01:53:48;23.57;;;18.53;;
12208;SDS011;6167;43.080;25.634;2022-12-31T01:56:16;20.53;;;15.70;;
12208;SDS011;6167;43.080;25.634;2022-12-31T01:58:46;20.37;;;16.33;;
12208;SDS011;6167;43.080;25.634;2022-12-31T02:01:20;22.47;;;16.80;;
12208;SDS011;6167;43.080;25.634;2022-12-31T02:03:51;24.27;;;17.60;;
12208;SDS011;6167;43.080;25.634;2022-12-31T02:06:20;28.33;;;20.13;;
12208;SDS011;6167;43.080;25.634;2022-12-31T02:08:50;24.97;;;18.00;;
12208;SDS011;6167;43.080;25.634;2022-12-31T02:11:21;25.20;;;16.17;;
12208;SDS011;6167;43.080;25.634;2022-12-31T02:13:50;20.27;;;15.53;;
12208;SDS011;6167;43.080;25.634;2022-12-31T02:16:23;21.43;;;16.47;;
12208;SDS011;6167;43.080;25.634;2022-12-31T02:19:01;20.47;;;16.67;;
12208;SDS011;6167;43.080;25.634;2022-12-31T02:21:42;27.73;;;20.00;;
12208;SDS011;6167;43.080;25.634;2022-12-31T02:24:44;21.47;;;16.30;;
12208;SDS011;6167;43.080;25.634;2022-12-31T02:27:26;21.83;;;15.53;;
12208;SDS011;6167;43.080;25.634;2022-12-31T02:30:08;25.37;;;17.23;;
12208;SDS011;6167;43.080;25.634;2022-12-31T02:32:48;32.07;;;25.53;;
12208;SDS011;6167;43.080;25.634;2022-12-31T02:35:24;22.37;;;16.50;;
12208;SDS011;6167;43.080;25.634;2022-12-31T02:37:56;20.47;;;15.23;;
12208;SDS011;6167;43.080;25.634;2022-12-31T02:40:27;20.33;;;15.57;;
12208;SDS011;6167;43.080;25.634;2022-12-31T02:42:54;21.80;;;16.07;;
12208;SDS011;6167;43.080;25.634;2022-12-31T02:45:24;19.67;;;15.63;;
12208;SDS011;6167;43.080;25.634;2022-12-31T02:48:04;22.90;;;16.07;;
12208;SDS011;6167;43.080;25.634;2022-12-31T02:50:43;16.67;;;13.77;;
12208;SDS011;6167;43.080;25.634;2022-12-31T02:53:25;18.10;;;13.67;;
12208;SDS011;6167;43.080;25.634;2022-12-31T02:56:11;19.63;;;13.50;;
12208;SDS011;6167;43.080;25.634;2022-12-31T02:58:46;15.60;;;12.47;;
12208;SDS011;6167;43.080;25.634;2022-12-31T03:01:42;18.50;;;13.20;;
12208;SDS011;6167;43.080;25.634;2022-12-31T03:04:30;15.80;;;12.00;;
12208;SDS011;6167;43.080;25.634;2022-12-31T03:07:00;17.60;;;12.57;;
12208;SDS011;6167;43.080;25.634;2022-12-31T03:09:28;15.40;;;12.03;;
12208;SDS011;6167;43.080;25.634;2022-12-31T03:11:55;17.50;;;13.03;;
12208;SDS011;6167;43.080;25.634;2022-12-31T03:14:39;16.53;;;12.50;;
12208;SDS011;6167;43.080;25.634;2022-12-31T03:17:07;18.77;;;13.83;;
12208;SDS011;6167;43.080;25.634;2022-12-31T03:19:34;17.57;;;13.33;;
12208;SDS011;6167;43.080;25.634;2022-12-31T03:22:18;19.90;;;14.20;;
12208;SDS011;6167;43.080;25.634;2022-12-31T03:24:55;21.03;;;14.47;;
12208;SDS011;6167;43.080;25.634;2022-12-31T03:27:42;27.10;;;17.63;;
12208;SDS011;6167;43.080;25.634;2022-12-31T03:30:10;77.43;;;43.80;;
12208;SDS011;6167;43.080;25.634;2022-12-31T03:32:40;71.77;;;41.90;;
12208;SDS011;6167;43.080;25.634;2022-12-31T03:35:08;40.80;;;28.23;;
12208;SDS011;6167;43.080;25.634;2022-12-31T03:37:36;32.80;;;23.10;;
12208;SDS011;6167;43.080;25.634;2022-12-31T03:40:03;32.83;;;22.70;;
12208;SDS011;6167;43.080;25.634;2022-12-31T03:42:31;20.33;;;15.57;;
12208;SDS011;6167;43.080;25.634;2022-12-31T03:44:58;18.83;;;15.00;;
12208;SDS011;6167;43.080;25.634;2022-12-31T03:47:25;19.47;;;15.27;;
12208;SDS011;6167;43.080;25.634;2022-12-31T03:49:54;20.13;;;16.00;;
12208;SDS011;6167;43.080;25.634;2022-12-31T03:52:21;26.50;;;19.37;;
12208;SDS011;6167;43.080;25.634;2022-12-31T03:54:48;22.57;;;17.80;;
12208;SDS011;6167;43.080;25.634;2022-12-31T03:57:15;19.47;;;15.97;;
12208;SDS011;6167;43.080;25.634;2022-12-31T03:59:42;19.87;;;16.17;;
12208;SDS011;6167;43.080;25.634;2022-12-31T04:02:09;22.67;;;16.70;;
12208;SDS011;6167;43.080;25.634;2022-12-31T04:04:36;22.47;;;16.13;;
12208;SDS011;6167;43.080;25.634;2022-12-31T04:07:04;22.50;;;16.10;;
12208;SDS011;6167;43.080;25.634;2022-12-31T04:09:31;25.13;;;16.70;;
12208;SDS011;6167;43.080;25.634;2022-12-31T04:11:58;22.77;;;16.40;;
12208;SDS011;6167;43.080;25.634;2022-12-31T04:14:24;21.23;;;15.33;;
12208;SDS011;6167;43.080;25.634;2022-12-31T04:16:51;22.87;;;16.27;;
12208;SDS011;6167;43.080;25.634;2022-12-31T04:19:18;24.33;;;16.67;;
12208;SDS011;6167;43.080;25.634;2022-12-31T04:21:45;26.77;;;19.23;;
12208;SDS011;6167;43.080;25.634;2022-12-31T04:24:13;45.63;;;29.40;;
12208;SDS011;6167;43.080;25.634;2022-12-31T04:26:40;25.50;;;19.07;;
12208;SDS011;6167;43.080;25.634;2022-12-31T04:29:08;21.83;;;15.97;;
12208;SDS011;6167;43.080;25.634;2022-12-31T04:31:35;20.20;;;16.43;;
12208;SDS011;6167;43.080;25.634;2022-12-31T04:34:02;23.73;;;16.33;;
12208;SDS011;6167;43.080;25.634;2022-12-31T04:36:30;26.33;;;18.07;;
12208;SDS011;6167;43.080;25.634;2022-12-31T04:38:57;19.50;;;15.97;;
12208;SDS011;6167;43.080;25.634;2022-12-31T04:41:25;20.43;;;16.07;;
12208;SDS011;6167;43.080;25.634;2022-12-31T04:43:52;20.70;;;15.63;;
12208;SDS011;6167;43.080;25.634;2022-12-31T04:46:21;42.10;;;27.50;;
12208;SDS011;6167;43.080;25.634;2022-12-31T04:48:50;24.60;;;17.77;;
12208;SDS011;6167;43.080;25.634;2022-12-31T04:51:17;55.47;;;35.73;;
12208;SDS011;6167;43.080;25.634;2022-12-31T04:53:44;46.77;;;28.90;;
12208;SDS011;6167;43.080;25.634;2022-12-31T04:56:11;22.50;;;16.30;;
12208;SDS011;6167;43.080;25.634;2022-12-31T04:58:40;21.23;;;15.90;;
12208;SDS011;6167;43.080;25.634;2022-12-31T05:01:07;22.07;;;16.13;;
12208;SDS011;6167;43.080;25.634;2022-12-31T05:03:34;55.13;;;32.00;;
12208;SDS011;6167;43.080;25.634;2022-12-31T05:06:02;50.23;;;29.70;;
12208;SDS011;6167;43.080;25.634;2022-12-31T05:08:31;93.53;;;47.93;;
12208;SDS011;6167;43.080;25.634;2022-12-31T05:10:58;20.73;;;14.73;;
12208;SDS011;6167;43.080;25.634;2022-12-31T05:13:25;18.87;;;14.00;;
12208;SDS011;6167;43.080;25.634;2022-12-31T05:15:54;22.10;;;14.53;;
12208;SDS011;6167;43.080;25.634;2022-12-31T05:18:22;25.70;;;16.90;;
12208;SDS011;6167;43.080;25.634;2022-12-31T05:20:49;37.40;;;21.17;;
12208;SDS011;6167;43.080;25.634;2022-12-31T05:23:16;89.67;;;44.47;;
12208;SDS011;6167;43.080;25.634;2022-12-31T05:25:44;83.23;;;43.27;;
12208;SDS011;6167;43.080;25.634;2022-12-31T05:28:12;39.17;;;24.03;;
12208;SDS011;6167;43.080;25.634;2022-12-31T05:30:39;92.93;;;49.07;;
12208;SDS011;6167;43.080;25.634;2022-12-31T05:33:09;41.27;;;26.33;;
12208;SDS011;6167;43.080;25.634;2022-12-31T05:35:36;18.87;;;14.17;;
12208;SDS011;6167;43.080;25.634;2022-12-31T05:38:03;19.60;;;13.90;;
12208;SDS011;6167;43.080;25.634;2022-12-31T05:40:30;18.00;;;13.80;;
12208;SDS011;6167;43.080;25.634;2022-12-31T05:42:57;18.03;;;14.37;;
12208;SDS011;6167;43.080;25.634;2022-12-31T05:45:26;35.17;;;22.57;;
12208;SDS011;6167;43.080;25.634;2022-12-31T05:47:53;40.73;;;24.50;;
12208;SDS011;6167;43.080;25.634;2022-12-31T05:50:21;89.90;;;42.17;;
12208;SDS011;6167;43.080;25.634;2022-12-31T05:52:48;28.87;;;19.23;;
12208;SDS011;6167;43.080;25.634;2022-12-31T05:55:15;20.40;;;15.47;;
12208;SDS011;6167;43.080;25.634;2022-12-31T05:57:42;56.37;;;28.93;;
12208;SDS011;6167;43.080;25.634;2022-12-31T06:00:09;40.37;;;26.60;;
12208;SDS011;6167;43.080;25.634;2022-12-31T06:02:37;23.37;;;17.03;;
12208;SDS011;6167;43.080;25.634;2022-12-31T06:05:04;22.83;;;15.80;;
12208;SDS011;6167;43.080;25.634;2022-12-31T06:07:34;33.83;;;19.20;;
12208;SDS011;6167;43.080;25.634;2022-12-31T06:10:01;37.50;;;21.43;;
12208;SDS011;6167;43.080;25.634;2022-12-31T06:12:29;37.23;;;22.17;;
12208;SDS011;6167;43.080;25.634;2022-12-31T06:14:56;23.00;;;15.77;;
12208;SDS011;6167;43.080;25.634;2022-12-31T06:17:23;26.63;;;16.77;;
12208;SDS011;6167;43.080;25.634;2022-12-31T06:19:50;20.10;;;15.03;;
12208;SDS011;6167;43.080;25.634;2022-12-31T06:22:17;20.70;;;14.50;;
12208;SDS011;6167;43.080;25.634;2022-12-31T06:24:45;31.57;;;22.07;;
12208;SDS011;6167;43.080;25.634;2022-12-31T06:27:12;21.50;;;12.87;;
12208;SDS011;6167;43.080;25.634;2022-12-31T06:29:39;20.50;;;14.40;;
12208;SDS011;6167;43.080;25.634;2022-12-31T06:32:06;24.10;;;18.27;;
12208;SDS011;6167;43.080;25.634;2022-12-31T06:34:33;22.23;;;14.13;;
12208;SDS011;6167;43.080;25.634;2022-12-31T06:36:59;17.70;;;12.83;;
12208;SDS011;6167;43.080;25.634;2022-12-31T06:39:26;17.37;;;13.47;;
12208;SDS011;6167;43.080;25.634;2022-12-31T06:41:55;18.47;;;14.10;;
12208;SDS011;6167;43.080;25.634;2022-12-31T06:44:21;17.93;;;14.37;;
12208;SDS011;6167;43.080;25.634;2022-12-31T06:46:48;24.43;;;16.93;;
12208;SDS011;6167;43.080;25.634;2022-12-31T06:49:15;21.33;;;15.87;;
12208;SDS011;6167;43.080;25.634;2022-12-31T06:51:42;23.60;;;16.63;;
12208;SDS011;6167;43.080;25.634;2022-12-31T06:54:10;21.37;;;16.10;;
12208;SDS011;6167;43.080;25.634;2022-12-31T06:56:38;29.60;;;22.10;;
12208;SDS011;6167;43.080;25.634;2022-12-31T06:59:08;45.90;;;32.07;;
12208;SDS011;6167;43.080;25.634;2022-12-31T07:01:48;30.87;;;21.07;;
12208;SDS011;6167;43.080;25.634;2022-12-31T07:04:30;21.40;;;16.30;;
12208;SDS011;6167;43.080;25.634;2022-12-31T07:07:23;21.33;;;15.53;;
12208;SDS011;6167;43.080;25.634;2022-12-31T07:09:56;20.43;;;14.50;;
12208;SDS011;6167;43.080;25.634;2022-12-31T07:12:39;13.10;;;11.13;;
12208;SDS011;6167;43.080;25.634;2022-12-31T07:15:19;14.37;;;12.80;;
12208;SDS011;6167;43.080;25.634;2022-12-31T07:17:58;16.50;;;13.13;;
12208;SDS011;6167;43.080;25.634;2022-12-31T07:20:32;15.97;;;13.93;;
12208;SDS011;6167;43.080;25.634;2022-12-31T07:23:00;18.23;;;14.63;;
12208;SDS011;6167;43.080;25.634;2022-12-31T07:25:27;16.77;;;14.20;;
12208;SDS011;6167;43.080;25.634;2022-12-31T07:27:58;19.80;;;15.13;;
12208;SDS011;6167;43.080;25.634;2022-12-31T07:30:38;15.03;;;13.43;;
12208;SDS011;6167;43.080;25.634;2022-12-31T07:36:17;16.37;;;14.17;;
12208;SDS011;6167;43.080;25.634;2022-12-31T07:38:52;16.30;;;14.53;;
12208;SDS011;6167;43.080;25.634;2022-12-31T07:41:23;16.50;;;14.80;;
12208;SDS011;6167;43.080;25.634;2022-12-31T07:44:08;16.83;;;15.13;;
12208;SDS011;6167;43.080;25.634;2022-12-31T07:46:50;15.70;;;14.00;;
12208;SDS011;6167;43.080;25.634;2022-12-31T07:49:21;17.20;;;14.93;;
12208;SDS011;6167;43.080;25.634;2022-12-31T07:51:49;24.20;;;19.60;;
12208;SDS011;6167;43.080;25.634;2022-12-31T07:54:16;16.15;;;14.45;;
12208;SDS011;6167;43.080;25.634;2022-12-31T07:56:43;27.40;;;24.57;;
12208;SDS011;6167;43.080;25.634;2022-12-31T07:59:13;18.42;;;16.42;;
12208;SDS011;6167;43.080;25.634;2022-12-31T08:01:46;19.30;;;16.35;;
12208;SDS011;6167;43.080;25.634;2022-12-31T08:04:18;21.27;;;19.00;;
12208;SDS011;6167;43.080;25.634;2022-12-31T08:06:54;20.35;;;18.25;;
12208;SDS011;6167;43.080;25.634;2022-12-31T08:09:31;20.88;;;18.58;;
12208;SDS011;6167;43.080;25.634;2022-12-31T08:12:08;21.58;;;19.25;;
12208;SDS011;6167;43.080;25.634;2022-12-31T08:14:36;28.25;;;23.90;;
12208;SDS011;6167;43.080;25.634;2022-12-31T08:17:10;19.55;;;17.40;;
12208;SDS011;6167;43.080;25.634;2022-12-31T08:19:39;20.75;;;17.77;;
12208;SDS011;6167;43.080;25.634;2022-12-31T08:22:11;18.77;;;16.85;;
12208;SDS011;6167;43.080;25.634;2022-12-31T08:24:51;19.52;;;17.42;;
12208;SDS011;6167;43.080;25.634;2022-12-31T08:27:28;19.08;;;17.02;;
12208;SDS011;6167;43.080;25.634;2022-12-31T08:30:04;19.98;;;15.60;;
12208;SDS011;6167;43.080;25.634;2022-12-31T08:32:38;17.83;;;15.93;;
12208;SDS011;6167;43.080;25.634;2022-12-31T08:35:14;21.70;;;18.17;;
12208;SDS011;6167;43.080;25.634;2022-12-31T08:37:53;17.63;;;15.38;;
12208;SDS011;6167;43.080;25.634;2022-12-31T08:40:29;18.90;;;16.35;;
12208;SDS011;6167;43.080;25.634;2022-12-31T08:43:11;20.13;;;16.42;;
12208;SDS011;6167;43.080;25.634;2022-12-31T08:45:49;17.05;;;15.20;;
12208;SDS011;6167;43.080;25.634;2022-12-31T08:48:21;17.73;;;15.98;;
12208;SDS011;6167;43.080;25.634;2022-12-31T08:50:53;18.38;;;16.15;;
12208;SDS011;6167;43.080;25.634;2022-12-31T08:53:20;16.98;;;15.38;;
12208;SDS011;6167;43.080;25.634;2022-12-31T08:55:48;24.83;;;19.90;;
12208;SDS011;6167;43.080;25.634;2022-12-31T08:58:21;19.17;;;16.60;;
12208;SDS011;6167;43.080;25.634;2022-12-31T09:01:00;17.88;;;15.88;;
12208;SDS011;6167;43.080;25.634;2022-12-31T09:03:33;17.65;;;15.95;;
12208;SDS011;6167;43.080;25.634;2022-12-31T09:06:16;21.85;;;17.95;;
12208;SDS011;6167;43.080;25.634;2022-12-31T09:08:46;17.65;;;15.85;;
12208;SDS011;6167;43.080;25.634;2022-12-31T09:11:21;17.77;;;15.98;;
12208;SDS011;6167;43.080;25.634;2022-12-31T09:16:47;24.50;;;21.83;;
12208;SDS011;6167;43.080;25.634;2022-12-31T09:19:21;17.42;;;15.63;;
12208;SDS011;6167;43.080;25.634;2022-12-31T09:21:48;16.60;;;14.80;;
12208;SDS011;6167;43.080;25.634;2022-12-31T09:24:15;17.98;;;15.93;;
12208;SDS011;6167;43.080;25.634;2022-12-31T09:26:47;17.10;;;15.30;;
12208;SDS011;6167;43.080;25.634;2022-12-31T09:29:25;17.55;;;15.57;;
12208;SDS011;6167;43.080;25.634;2022-12-31T09:32:04;17.60;;;15.80;;
12208;SDS011;6167;43.080;25.634;2022-12-31T09:34:42;18.00;;;16.20;;
12208;SDS011;6167;43.080;25.634;2022-12-31T09:37:16;16.10;;;14.43;;
12208;SDS011;6167;43.080;25.634;2022-12-31T09:39:47;17.73;;;14.40;;
12208;SDS011;6167;43.080;25.634;2022-12-31T09:51:26;16.38;;;14.63;;
12208;SDS011;6167;43.080;25.634;2022-12-31T09:56:49;16.58;;;14.95;;
12208;SDS011;6167;43.080;25.634;2022-12-31T09:59:34;18.38;;;16.48;;
12208;SDS011;6167;43.080;25.634;2022-12-31T10:02:11;17.73;;;15.85;;
12208;SDS011;6167;43.080;25.634;2022-12-31T10:04:47;18.80;;;16.13;;
12208;SDS011;6167;43.080;25.634;2022-12-31T10:07:29;21.90;;;17.23;;
12208;SDS011;6167;43.080;25.634;2022-12-31T10:10:11;22.63;;;20.20;;
12208;SDS011;6167;43.080;25.634;2022-12-31T10:12:57;19.13;;;16.65;;
12208;SDS011;6167;43.080;25.634;2022-12-31T10:21:47;20.85;;;18.65;;
12208;SDS011;6167;43.080;25.634;2022-12-31T10:24:35;23.00;;;19.83;;
12208;SDS011;6167;43.080;25.634;2022-12-31T10:27:20;20.70;;;18.55;;
12208;SDS011;6167;43.080;25.634;2022-12-31T10:30:01;20.20;;;18.10;;
12208;SDS011;6167;43.080;25.634;2022-12-31T10:32:38;23.17;;;20.58;;
12208;SDS011;6167;43.080;25.634;2022-12-31T10:35:13;22.65;;;20.25;;
12208;SDS011;6167;43.080;25.634;2022-12-31T10:37:54;30.90;;;23.90;;
12208;SDS011;6167;43.080;25.634;2022-12-31T10:40:34;19.00;;;17.10;;
12208;SDS011;6167;43.080;25.634;2022-12-31T10:43:32;21.73;;;17.70;;
12208;SDS011;6167;43.080;25.634;2022-12-31T10:46:30;24.30;;;18.83;;
12208;SDS011;6167;43.080;25.634;2022-12-31T10:49:34;18.13;;;16.23;;
12208;SDS011;6167;43.080;25.634;2022-12-31T10:52:40;22.05;;;18.45;;
12208;SDS011;6167;43.080;25.634;2022-12-31T11:01:34;20.10;;;15.43;;
12208;SDS011;6167;43.080;25.634;2022-12-31T11:04:19;14.88;;;13.32;;
12208;SDS011;6167;43.080;25.634;2022-12-31T11:10:18;18.73;;;14.55;;
12208;SDS011;6167;43.080;25.634;2022-12-31T11:13:19;13.90;;;12.45;;
12208;SDS011;6167;43.080;25.634;2022-12-31T11:16:08;11.90;;;10.70;;
12208;SDS011;6167;43.080;25.634;2022-12-31T11:18:51;12.32;;;11.13;;
12208;SDS011;6167;43.080;25.634;2022-12-31T11:21:29;12.27;;;10.98;;
12208;SDS011;6167;43.080;25.634;2022-12-31T11:24:15;11.85;;;10.65;;
12208;SDS011;6167;43.080;25.634;2022-12-31T11:26:57;12.40;;;11.27;;
12208;SDS011;6167;43.080;25.634;2022-12-31T11:29:47;10.68;;;9.68;;
12208;SDS011;6167;43.080;25.634;2022-12-31T11:32:25;9.60;;;8.70;;
12208;SDS011;6167;43.080;25.634;2022-12-31T11:35:15;8.57;;;7.68;;
12208;SDS011;6167;43.080;25.634;2022-12-31T11:38:10;8.13;;;7.10;;
12208;SDS011;6167;43.080;25.634;2022-12-31T11:40:50;8.40;;;7.55;;
12208;SDS011;6167;43.080;25.634;2022-12-31T11:43:26;9.32;;;7.32;;
12208;SDS011;6167;43.080;25.634;2022-12-31T11:46:11;7.85;;;6.93;;
12208;SDS011;6167;43.080;25.634;2022-12-31T11:48:54;7.93;;;6.60;;
12208;SDS011;6167;43.080;25.634;2022-12-31T11:51:35;9.38;;;6.43;;
12208;SDS011;6167;43.080;25.634;2022-12-31T11:54:18;8.50;;;6.20;;
12208;SDS011;6167;43.080;25.634;2022-12-31T11:57:01;6.78;;;6.18;;
12208;SDS011;6167;43.080;25.634;2022-12-31T11:59:38;6.57;;;5.82;;
12208;SDS011;6167;43.080;25.634;2022-12-31T12:02:13;7.70;;;6.68;;
12208;SDS011;6167;43.080;25.634;2022-12-31T12:05:04;7.80;;;6.95;;
12208;SDS011;6167;43.080;25.634;2022-12-31T12:07:32;7.95;;;7.15;;
12208;SDS011;6167;43.080;25.634;2022-12-31T12:10:01;6.95;;;6.30;;
12208;SDS011;6167;43.080;25.634;2022-12-31T12:12:38;12.23;;;8.70;;
12208;SDS011;6167;43.080;25.634;2022-12-31T12:15:07;7.47;;;6.63;;
12208;SDS011;6167;43.080;25.634;2022-12-31T12:17:38;7.35;;;6.65;;
12208;SDS011;6167;43.080;25.634;2022-12-31T12:20:12;7.32;;;6.60;;
12208;SDS011;6167;43.080;25.634;2022-12-31T12:22:47;7.68;;;6.90;;
12208;SDS011;6167;43.080;25.634;2022-12-31T12:25:17;8.43;;;7.13;;
12208;SDS011;6167;43.080;25.634;2022-12-31T12:27:46;11.57;;;9.63;;
12208;SDS011;6167;43.080;25.634;2022-12-31T12:30:17;9.27;;;6.93;;
12208;SDS011;6167;43.080;25.634;2022-12-31T12:32:51;11.13;;;8.45;;
12208;SDS011;6167;43.080;25.634;2022-12-31T12:35:23;12.10;;;7.85;;
12208;SDS011;6167;43.080;25.634;2022-12-31T12:37:58;9.65;;;8.07;;
12208;SDS011;6167;43.080;25.634;2022-12-31T12:40:27;10.65;;;8.85;;
12208;SDS011;6167;43.080;25.634;2022-12-31T12:42:55;8.38;;;7.53;;
12208;SDS011;6167;43.080;25.634;2022-12-31T12:45:23;8.32;;;7.50;;
12208;SDS011;6167;43.080;25.634;2022-12-31T12:47:54;9.02;;;8.00;;
12208;SDS011;6167;43.080;25.634;2022-12-31T12:50:25;13.20;;;9.40;;
12208;SDS011;6167;43.080;25.634;2022-12-31T12:53:05;11.20;;;9.27;;
12208;SDS011;6167;43.080;25.634;2022-12-31T12:55:46;13.02;;;9.85;;
12208;SDS011;6167;43.080;25.634;2022-12-31T12:58:29;8.75;;;7.30;;
12208;SDS011;6167;43.080;25.634;2022-12-31T13:01:08;9.32;;;8.30;;
12208;SDS011;6167;43.080;25.634;2022-12-31T13:06:48;12.20;;;8.60;;
12208;SDS011;6167;43.080;25.634;2022-12-31T13:09:27;10.65;;;8.05;;
12208;SDS011;6167;43.080;25.634;2022-12-31T13:12:08;10.02;;;7.78;;
12208;SDS011;6167;43.080;25.634;2022-12-31T13:14:42;9.35;;;7.18;;
12208;SDS011;6167;43.080;25.634;2022-12-31T13:17:23;9.38;;;8.15;;
12208;SDS011;6167;43.080;25.634;2022-12-31T13:20:00;8.23;;;6.18;;
12208;SDS011;6167;43.080;25.634;2022-12-31T13:22:37;7.38;;;6.53;;
12208;SDS011;6167;43.080;25.634;2022-12-31T13:25:14;6.63;;;6.03;;
12208;SDS011;6167;43.080;25.634;2022-12-31T13:27:49;6.18;;;5.57;;
12208;SDS011;6167;43.080;25.634;2022-12-31T13:30:20;6.53;;;5.82;;
12208;SDS011;6167;43.080;25.634;2022-12-31T13:32:51;6.50;;;5.80;;
12208;SDS011;6167;43.080;25.634;2022-12-31T13:35:25;7.38;;;6.15;;
12208;SDS011;6167;43.080;25.634;2022-12-31T13:37:57;7.13;;;5.57;;
12208;SDS011;6167;43.080;25.634;2022-12-31T13:40:29;9.68;;;7.00;;
12208;SDS011;6167;43.080;25.634;2022-12-31T13:43:02;9.70;;;8.15;;
12208;SDS011;6167;43.080;25.634;2022-12-31T13:45:38;10.00;;;7.68;;
12208;SDS011;6167;43.080;25.634;2022-12-31T13:48:10;8.45;;;7.18;;
12208;SDS011;6167;43.080;25.634;2022-12-31T13:50:41;11.05;;;7.78;;
12208;SDS011;6167;43.080;25.634;2022-12-31T13:53:19;9.05;;;7.72;;
12208;SDS011;6167;43.080;25.634;2022-12-31T13:55:52;8.52;;;7.63;;
12208;SDS011;6167;43.080;25.634;2022-12-31T13:58:25;11.85;;;9.13;;
12208;SDS011;6167;43.080;25.634;2022-12-31T14:01:00;8.73;;;7.78;;
12208;SDS011;6167;43.080;25.634;2022-12-31T14:03:37;10.52;;;7.63;;
12208;SDS011;6167;43.080;25.634;2022-12-31T14:06:12;10.35;;;7.63;;
12208;SDS011;6167;43.080;25.634;2022-12-31T14:08:49;12.02;;;7.68;;
12208;SDS011;6167;43.080;25.634;2022-12-31T14:11:19;9.45;;;7.18;;
12208;SDS011;6167;43.080;25.634;2022-12-31T14:14:02;10.38;;;8.32;;
12208;SDS011;6167;43.080;25.634;2022-12-31T14:16:39;8.57;;;7.50;;
12208;SDS011;6167;43.080;25.634;2022-12-31T14:19:17;15.27;;;12.70;;
12208;SDS011;6167;43.080;25.634;2022-12-31T14:21:56;22.88;;;20.40;;
12208;SDS011;6167;43.080;25.634;2022-12-31T14:24:36;23.38;;;20.73;;
12208;SDS011;6167;43.080;25.634;2022-12-31T14:27:12;24.10;;;19.52;;
12208;SDS011;6167;43.080;25.634;2022-12-31T14:29:44;26.30;;;23.20;;
12208;SDS011;6167;43.080;25.634;2022-12-31T14:35:21;19.17;;;17.00;;
12208;SDS011;6167;43.080;25.634;2022-12-31T14:37:58;19.15;;;16.02;;
12208;SDS011;6167;43.080;25.634;2022-12-31T14:40:33;62.13;;;47.15;;
12208;SDS011;6167;43.080;25.634;2022-12-31T14:43:13;41.75;;;35.58;;
12208;SDS011;6167;43.080;25.634;2022-12-31T14:45:49;28.23;;;21.85;;
12208;SDS011;6167;43.080;25.634;2022-12-31T14:48:29;25.67;;;22.13;;
12208;SDS011;6167;43.080;25.634;2022-12-31T14:51:06;18.90;;;15.70;;
12208;SDS011;6167;43.080;25.634;2022-12-31T14:53:33;38.30;;;28.75;;
12208;SDS011;6167;43.080;25.634;2022-12-31T14:56:02;27.42;;;21.63;;
12208;SDS011;6167;43.080;25.634;2022-12-31T14:58:33;31.52;;;26.50;;
12208;SDS011;6167;43.080;25.634;2022-12-31T15:01:02;29.48;;;23.05;;
12208;SDS011;6167;43.080;25.634;2022-12-31T15:03:34;21.58;;;17.55;;
12208;SDS011;6167;43.080;25.634;2022-12-31T15:09:07;27.35;;;20.98;;
12208;SDS011;6167;43.080;25.634;2022-12-31T15:11:49;44.03;;;29.63;;
12208;SDS011;6167;43.080;25.634;2022-12-31T15:14:44;34.47;;;24.15;;
12208;SDS011;6167;43.080;25.634;2022-12-31T15:17:31;34.83;;;25.50;;
12208;SDS011;6167;43.080;25.634;2022-12-31T15:23:12;35.08;;;24.95;;
12208;SDS011;6167;43.080;25.634;2022-12-31T15:25:47;32.78;;;23.23;;
12208;SDS011;6167;43.080;25.634;2022-12-31T15:28:32;31.47;;;22.23;;
12208;SDS011;6167;43.080;25.634;2022-12-31T15:31:07;29.30;;;23.35;;
12208;SDS011;6167;43.080;25.634;2022-12-31T15:33:52;26.77;;;21.00;;
12208;SDS011;6167;43.080;25.634;2022-12-31T15:36:22;44.45;;;31.13;;
12208;SDS011;6167;43.080;25.634;2022-12-31T15:38:50;37.57;;;28.60;;
12208;SDS011;6167;43.080;25.634;2022-12-31T15:41:35;39.60;;;27.50;;
12208;SDS011;6167;43.080;25.634;2022-12-31T15:44:07;37.77;;;27.23;;
12208;SDS011;6167;43.080;25.634;2022-12-31T15:46:43;40.17;;;25.60;;
12208;SDS011;6167;43.080;25.634;2022-12-31T15:49:14;23.13;;;16.90;;